Time,TemperatureF,DewpointF,PressureIn,WindDirection,WindDirectionDegrees,WindSpeedMPH,WindSpeedGustMPH,Humidity,HourlyPrecipIn,Conditions,Clouds,dailyrainin,SolarRadiationWatts/m^2,SoftwareType,DateUTC
2013-11-27 00:00:00,13.4,7.0,30.42,NNW,333,3.0,6.0,75,0.00,,---,0.00,0.00,VWS V14.00,2013-11-27 06:00:00,
2013-11-27 00:01:00,13.2,6.8,30.42,NNW,346,0.0,6.0,75,0.00,,---,0.00,0.00,VWS V14.00,2013-11-27 06:01:00,
2013-11-27 00:06:00,13.2,6.8,30.42,North,5,0.0,7.0,75,0.00,,---,0.00,0.00,VWS V14.00,2013-11-27 06:06:00,
2013-11-27 00:11:00,13.2,7.1,30.42,NNE,12,1.0,7.0,76,0.00,,---,0.00,0.00,VWS V14.00,2013-11-27 06:11:00,
2013-11-27 00:16:00,13.3,6.9,30.42,NNW,346,1.0,8.0,75,0.00,,---,0.00,0.00,VWS V14.00,2013-11-27 06:16:00,
2013-11-27 00:21:00,13.3,6.9,30.42,North,355,4.0,8.0,75,0.00,,---,0.00,0.00,VWS V14.00,2013-11-27 06:21:00,
2013-11-27 00:26:00,13.4,7.0,30.43,NW,319,1.0,8.0,75,0.00,,---,0.00,0.00,VWS V14.00,2013-11-27 06:26:00,
2013-11-27 00:30:00,13.4,7.0,30.43,NW,319,0.0,8.0,75,0.00,,---,0.00,0.00,VWS V14.00,2013-11-27 06:30:00,
2013-11-27 00:31:00,13.3,6.9,30.42,NW,310,1.0,5.0,75,0.00,,---,0.00,0.00,VWS V14.00,2013-11-27 06:31:00,
2013-11-27 00:36:00,13.2,6.8,30.43,NW,316,0.0,6.0,75,0.00,,---,0.00,0.00,VWS V14.00,2013-11-27 06:36:00,
2013-11-27 00:42:00,13.1,6.7,30.43,NW,324,0.0,6.0,75,0.00,,---,0.00,0.00,VWS V14.00,2013-11-27 06:42:00,
2013-11-27 00:47:00,13.0,6.9,30.43,WNW,294,2.0,6.0,76,0.00,,---,0.00,0.00,VWS V14.00,2013-11-27 06:47:00,
2013-11-27 00:52:00,12.9,6.8,30.43,NNW,327,1.0,6.0,76,0.00,,---,0.00,0.00,VWS V14.00,2013-11-27 06:52:00,
2013-11-27 00:57:00,12.8,6.7,30.43,NNW,327,0.0,6.0,76,0.00,,---,0.00,0.00,VWS V14.00,2013-11-27 06:57:00,
2013-11-27 01:00:00,12.8,6.7,30.43,NNW,327,0.0,6.0,76,0.00,,---,0.00,0.00,VWS V14.00,2013-11-27 07:00:00,
2013-11-27 01:02:00,12.7,6.9,30.43,North,5,4.0,4.0,77,0.00,,---,0.00,0.00,VWS V14.00,2013-11-27 07:02:00,
2013-11-27 01:07:00,12.7,6.9,30.43,NW,309,0.0,5.0,77,0.00,,---,0.00,0.00,VWS V14.00,2013-11-27 07:07:00,
2013-11-27 01:12:00,12.6,6.8,30.43,NNW,338,0.0,5.0,77,0.00,,---,0.00,0.00,VWS V14.00,2013-11-27 07:12:00,
2013-11-27 01:17:00,12.5,6.7,30.43,NNW,332,2.0,5.0,77,0.00,,---,0.00,0.00,VWS V14.00,2013-11-27 07:17:00,
2013-11-27 01:22:00,12.4,6.6,30.43,NW,324,1.0,5.0,77,0.00,,---,0.00,0.00,VWS V14.00,2013-11-27 07:22:00,
2013-11-27 01:27:00,12.3,6.5,30.44,NNW,344,0.0,0.0,77,0.00,,---,0.00,0.00,VWS V14.00,2013-11-27 07:27:00,
2013-11-27 01:30:00,12.3,6.5,30.44,NNW,344,0.0,5.0,77,0.00,,---,0.00,0.00,VWS V14.00,2013-11-27 07:30:00,
2013-11-27 01:32:00,12.1,6.3,30.43,North,355,0.0,2.0,77,0.00,,---,0.00,0.00,VWS V14.00,2013-11-27 07:32:00,
2013-11-27 01:37:00,12.0,6.5,30.43,NW,310,1.0,3.0,78,0.00,,---,0.00,0.00,VWS V14.00,2013-11-27 07:37:00,
2013-11-27 01:42:00,12.1,6.6,30.43,NNW,330,0.0,3.0,78,0.00,,---,0.00,0.00,VWS V14.00,2013-11-27 07:42:00,
2013-11-27 01:47:00,12.0,6.5,30.44,NNW,348,0.0,3.0,78,0.00,,---,0.00,0.00,VWS V14.00,2013-11-27 07:47:00,
2013-11-27 01:52:00,12.0,6.5,30.43,NW,316,1.0,7.0,78,0.00,,---,0.00,0.00,VWS V14.00,2013-11-27 07:52:00,
2013-11-27 01:57:00,12.2,6.7,30.43,NW,311,0.0,1.0,78,0.00,,---,0.00,0.00,VWS V14.00,2013-11-27 07:57:00,
2013-11-27 02:00:00,12.1,6.6,30.43,NW,311,1.0,7.0,78,0.00,,---,0.00,0.00,VWS V14.00,2013-11-27 08:00:00,
2013-11-27 02:02:00,12.2,6.4,30.43,NNW,336,1.0,3.0,77,0.00,,---,0.00,0.00,VWS V14.00,2013-11-27 08:02:00,
2013-11-27 02:07:00,12.2,6.4,30.44,North,355,2.0,8.0,77,0.00,,---,0.00,0.00,VWS V14.00,2013-11-27 08:07:00,
2013-11-27 02:13:00,12.3,6.5,30.44,North,355,3.0,8.0,77,0.00,,---,0.00,0.00,VWS V14.00,2013-11-27 08:13:00,
2013-11-27 02:18:00,12.2,6.4,30.44,NNW,342,0.0,8.0,77,0.00,,---,0.00,0.00,VWS V14.00,2013-11-27 08:18:00,
2013-11-27 02:23:00,12.2,6.4,30.44,West,281,3.0,8.0,77,0.00,,---,0.00,0.00,VWS V14.00,2013-11-27 08:23:00,
2013-11-27 02:28:00,12.3,6.8,30.44,NW,309,1.0,3.0,78,0.00,,---,0.00,0.00,VWS V14.00,2013-11-27 08:28:00,
2013-11-27 02:30:00,12.3,6.8,30.44,NNW,330,0.0,8.0,78,0.00,,---,0.00,0.00,VWS V14.00,2013-11-27 08:30:00,
2013-11-27 02:33:00,12.2,6.4,30.44,NNW,345,0.0,3.0,77,0.00,,---,0.00,0.00,VWS V14.00,2013-11-27 08:33:00,
2013-11-27 02:38:00,12.1,6.6,30.44,NW,317,1.0,3.0,78,0.00,,---,0.00,0.00,VWS V14.00,2013-11-27 08:38:00,
2013-11-27 02:43:00,11.9,6.4,30.44,NW,320,1.0,4.0,78,0.00,,---,0.00,0.00,VWS V14.00,2013-11-27 08:43:00,
2013-11-27 02:48:00,11.8,6.6,30.44,NW,325,0.0,4.0,79,0.00,,---,0.00,0.00,VWS V14.00,2013-11-27 08:48:00,
2013-11-27 02:53:00,11.8,6.6,30.44,NNW,332,2.0,4.0,79,0.00,,---,0.00,0.00,VWS V14.00,2013-11-27 08:53:00,
2013-11-27 02:58:00,11.7,6.5,30.44,NNW,336,5.0,6.0,79,0.00,,---,0.00,0.00,VWS V14.00,2013-11-27 08:58:00,
2013-11-27 03:00:00,11.7,6.5,30.44,NNW,334,0.0,4.0,79,0.00,,---,0.00,0.00,VWS V14.00,2013-11-27 09:00:00,
2013-11-27 03:03:00,11.7,6.5,30.44,NNW,332,0.0,6.0,79,0.00,,---,0.00,0.00,VWS V14.00,2013-11-27 09:03:00,
2013-11-27 03:08:00,11.7,6.5,30.44,NNE,30,0.0,6.0,79,0.00,,---,0.00,0.00,VWS V14.00,2013-11-27 09:08:00,
2013-11-27 03:13:00,11.6,6.4,30.43,NNW,346,0.0,6.0,79,0.00,,---,0.00,0.00,VWS V14.00,2013-11-27 09:13:00,
2013-11-27 03:18:00,11.4,6.2,30.44,NNW,346,0.0,6.0,79,0.00,,---,0.00,0.00,VWS V14.00,2013-11-27 09:18:00,
2013-11-27 03:23:00,11.2,6.0,30.44,NNW,348,0.0,6.0,79,0.00,,---,0.00,0.00,VWS V14.00,2013-11-27 09:23:00,
2013-11-27 03:28:00,11.0,6.1,30.43,NNW,348,0.0,0.0,80,0.00,,---,0.00,0.00,VWS V14.00,2013-11-27 09:28:00,
2013-11-27 03:30:00,9.7,5.3,30.43,NNE,19,0.0,1.0,82,0.00,,---,0.00,0.00,VWS V14.00,2013-11-27 09:30:00,
2013-11-27 03:33:00,10.7,5.8,30.43,NNW,328,0.0,2.0,80,0.00,,---,0.00,0.00,VWS V14.00,2013-11-27 09:33:00,
2013-11-27 03:38:00,10.5,5.6,30.43,NNW,328,0.0,2.0,80,0.00,,---,0.00,0.00,VWS V14.00,2013-11-27 09:38:00,
2013-11-27 03:44:00,10.3,5.6,30.43,NNW,340,0.0,2.0,81,0.00,,---,0.00,0.00,VWS V14.00,2013-11-27 09:44:00,
2013-11-27 03:49:00,10.0,5.6,30.42,NNW,331,0.0,3.0,82,0.00,,---,0.00,0.00,VWS V14.00,2013-11-27 09:49:00,
2013-11-27 03:54:00,9.9,5.5,30.43,NNW,331,0.0,3.0,82,0.00,,---,0.00,0.00,VWS V14.00,2013-11-27 09:54:00,
2013-11-27 03:59:00,10.0,5.9,30.43,NNE,19,0.0,1.0,83,0.00,,---,0.00,0.00,VWS V14.00,2013-11-27 09:59:00,
2013-11-27 04:00:00,10.0,5.6,30.43,NNE,20,1.0,3.0,82,0.00,,---,0.00,0.00,VWS V14.00,2013-11-27 10:00:00,
2013-11-27 04:04:00,10.2,5.8,30.43,NNE,19,0.0,1.0,82,0.00,,---,0.00,0.00,VWS V14.00,2013-11-27 10:04:00,
2013-11-27 04:09:00,10.2,5.8,30.43,NNE,19,0.0,1.0,82,0.00,,---,0.00,0.00,VWS V14.00,2013-11-27 10:09:00,
2013-11-27 04:14:00,10.2,5.8,30.43,NNE,19,0.0,1.0,82,0.00,,---,0.00,0.00,VWS V14.00,2013-11-27 10:14:00,
2013-11-27 04:19:00,10.0,5.3,30.43,NNE,19,0.0,1.0,81,0.00,,---,0.00,0.00,VWS V14.00,2013-11-27 10:19:00,
2013-11-27 04:24:00,9.9,5.2,30.43,NNE,19,0.0,1.0,81,0.00,,---,0.00,0.00,VWS V14.00,2013-11-27 10:24:00,
2013-11-27 04:29:00,9.6,5.2,30.43,NNE,19,0.0,0.0,82,0.00,,---,0.00,0.00,VWS V14.00,2013-11-27 10:29:00,
2013-11-27 04:30:00,9.7,5.3,30.43,NNE,19,0.0,1.0,82,0.00,,---,0.00,0.00,VWS V14.00,2013-11-27 10:30:00,
2013-11-27 04:34:00,9.3,4.9,30.43,NNE,19,0.0,0.0,82,0.00,,---,0.00,0.00,VWS V14.00,2013-11-27 10:34:00,
2013-11-27 04:39:00,9.1,4.7,30.43,NNE,14,0.0,0.0,82,0.00,,---,0.00,0.00,VWS V14.00,2013-11-27 10:39:00,
2013-11-27 04:44:00,8.8,4.4,30.43,NNE,15,0.0,0.0,82,0.00,,---,0.00,0.00,VWS V14.00,2013-11-27 10:44:00,
2013-11-27 04:49:00,8.5,4.2,30.44,NNE,14,0.0,0.0,82,0.00,,---,0.00,0.00,VWS V14.00,2013-11-27 10:49:00,
2013-11-27 04:54:00,8.3,4.2,30.43,NNE,14,0.0,0.0,83,0.00,,---,0.00,0.00,VWS V14.00,2013-11-27 10:54:00,
2013-11-27 04:59:00,8.0,3.9,30.43,NNE,15,0.0,0.0,83,0.00,,---,0.00,0.00,VWS V14.00,2013-11-27 10:59:00,
2013-11-27 05:00:00,8.2,3.8,30.43,NNE,15,0.0,0.0,82,0.00,,---,0.00,0.00,VWS V14.00,2013-11-27 11:00:00,
2013-11-27 05:04:00,7.8,3.7,30.43,NNE,15,0.0,0.0,83,0.00,,---,0.00,0.00,VWS V14.00,2013-11-27 11:04:00,
2013-11-27 05:09:00,7.6,3.8,30.42,NNE,15,0.0,0.0,84,0.00,,---,0.00,0.00,VWS V14.00,2013-11-27 11:09:00,
2013-11-27 05:14:00,7.4,3.6,30.42,NNE,15,0.0,0.0,84,0.00,,---,0.00,0.00,VWS V14.00,2013-11-27 11:14:00,
2013-11-27 05:19:00,7.3,3.5,30.43,NNE,15,0.0,0.0,84,0.00,,---,0.00,0.00,VWS V14.00,2013-11-27 11:19:00,
2013-11-27 05:24:00,7.1,3.3,30.43,NNE,15,0.0,0.0,84,0.00,,---,0.00,0.00,VWS V14.00,2013-11-27 11:24:00,
2013-11-27 05:30:00,6.9,3.1,30.43,NNE,14,0.0,0.0,84,0.00,,---,0.00,0.00,VWS V14.00,2013-11-27 11:30:00,
2013-11-27 05:35:00,6.8,3.3,30.43,NNE,15,0.0,0.0,85,0.00,,---,0.00,0.00,VWS V14.00,2013-11-27 11:35:00,
2013-11-27 05:40:00,6.6,3.1,30.43,NNE,15,0.0,0.0,85,0.00,,---,0.00,0.00,VWS V14.00,2013-11-27 11:40:00,
2013-11-27 05:45:00,6.4,2.9,30.43,NNE,15,0.0,0.0,85,0.00,,---,0.00,0.00,VWS V14.00,2013-11-27 11:45:00,
2013-11-27 05:50:00,6.3,3.0,30.43,NNE,15,0.0,0.0,86,0.00,,---,0.00,0.00,VWS V14.00,2013-11-27 11:50:00,
2013-11-27 05:55:00,6.2,2.9,30.43,NNE,14,0.0,0.0,86,0.00,,---,0.00,0.00,VWS V14.00,2013-11-27 11:55:00,
2013-11-27 06:00:00,6.1,2.8,30.43,NNE,14,0.0,0.0,86,0.00,,---,0.00,0.00,VWS V14.00,2013-11-27 12:00:00,
2013-11-27 06:05:00,6.1,2.8,30.43,NNE,15,0.0,0.0,86,0.00,,---,0.00,0.00,VWS V14.00,2013-11-27 12:05:00,
2013-11-27 06:10:00,6.0,2.7,30.43,NNE,15,0.0,0.0,86,0.00,,---,0.00,0.00,VWS V14.00,2013-11-27 12:10:00,
2013-11-27 06:15:00,6.0,3.0,30.44,NNE,15,0.0,0.0,87,0.00,,---,0.00,0.00,VWS V14.00,2013-11-27 12:15:00,
2013-11-27 06:20:00,6.0,3.0,30.44,NNE,14,0.0,0.0,87,0.00,,---,0.00,0.00,VWS V14.00,2013-11-27 12:20:00,
2013-11-27 06:25:00,5.9,2.9,30.43,NNE,15,0.0,0.0,87,0.00,,---,0.00,0.00,VWS V14.00,2013-11-27 12:25:00,
2013-11-27 06:30:00,5.9,2.9,30.43,NNE,14,0.0,0.0,87,0.00,,---,0.00,0.00,VWS V14.00,2013-11-27 12:30:00,
2013-11-27 06:35:00,6.1,3.3,30.43,NNE,15,0.0,0.0,88,0.00,,---,0.00,0.00,VWS V14.00,2013-11-27 12:35:00,
2013-11-27 06:40:00,6.2,3.4,30.42,NNE,14,0.0,0.0,88,0.00,,---,0.00,0.00,VWS V14.00,2013-11-27 12:40:00,
2013-11-27 06:45:00,6.2,3.4,30.42,NNE,15,0.0,0.0,88,0.00,,---,0.00,0.00,VWS V14.00,2013-11-27 12:45:00,
2013-11-27 06:50:00,6.1,3.3,30.42,NNE,14,0.0,0.0,88,0.00,,---,0.00,0.00,VWS V14.00,2013-11-27 12:50:00,
2013-11-27 06:55:00,6.1,3.1,30.42,NNE,14,0.0,0.0,87,0.00,,---,0.00,0.00,VWS V14.00,2013-11-27 12:55:00,
2013-11-27 07:00:00,6.0,3.0,30.42,NNE,15,0.0,0.0,87,0.00,,---,0.00,0.00,VWS V14.00,2013-11-27 13:00:00,
2013-11-27 07:05:00,6.0,3.2,30.42,NNE,15,0.0,0.0,88,0.00,,---,0.00,0.00,VWS V14.00,2013-11-27 13:05:00,
2013-11-27 07:11:00,6.1,3.6,30.42,NNE,15,0.0,0.0,89,0.00,,---,0.00,0.00,VWS V14.00,2013-11-27 13:11:00,
2013-11-27 07:16:00,6.1,3.3,30.42,NNE,14,0.0,0.0,88,0.00,,---,0.00,0.00,VWS V14.00,2013-11-27 13:16:00,
2013-11-27 07:21:00,6.0,3.2,30.42,NNE,15,0.0,0.0,88,0.00,,---,0.00,0.00,VWS V14.00,2013-11-27 13:21:00,
2013-11-27 07:26:00,5.9,2.9,30.42,NNE,15,0.0,0.0,87,0.00,,---,0.00,0.00,VWS V14.00,2013-11-27 13:26:00,
2013-11-27 07:30:00,5.9,2.9,30.42,NNE,15,0.0,0.0,87,0.00,,---,0.00,5.00,VWS V14.00,2013-11-27 13:30:00,
2013-11-27 07:31:00,5.8,2.8,30.42,NNE,14,0.0,0.0,87,0.00,,---,0.00,5.00,VWS V14.00,2013-11-27 13:31:00,
2013-11-27 07:36:00,5.6,2.6,30.42,NNE,15,0.0,0.0,87,0.00,,---,0.00,7.00,VWS V14.00,2013-11-27 13:36:00,
2013-11-27 07:41:00,5.5,2.5,30.42,NNE,15,0.0,0.0,87,0.00,,---,0.00,9.00,VWS V14.00,2013-11-27 13:41:00,
2013-11-27 07:46:00,5.3,2.3,30.42,NNE,14,0.0,0.0,87,0.00,,---,0.00,9.00,VWS V14.00,2013-11-27 13:46:00,
2013-11-27 07:51:00,5.3,2.3,30.42,NNE,15,0.0,0.0,87,0.00,,---,0.00,11.00,VWS V14.00,2013-11-27 13:51:00,
2013-11-27 07:56:00,5.2,2.2,30.42,NNE,14,0.0,0.0,87,0.00,,---,0.00,12.00,VWS V14.00,2013-11-27 13:56:00,
2013-11-27 08:00:00,5.2,2.2,30.42,NNE,14,0.0,0.0,87,0.00,,---,0.00,12.00,VWS V14.00,2013-11-27 14:00:00,
2013-11-27 08:01:00,5.1,2.1,30.42,NNE,14,0.0,0.0,87,0.00,,---,0.00,14.00,VWS V14.00,2013-11-27 14:01:00,
2013-11-27 08:06:00,5.3,2.5,30.41,NNE,15,0.0,0.0,88,0.00,,---,0.00,14.00,VWS V14.00,2013-11-27 14:06:00,
2013-11-27 08:11:00,5.4,2.9,30.41,NNE,14,0.0,0.0,89,0.00,,---,0.00,16.00,VWS V14.00,2013-11-27 14:11:00,
2013-11-27 08:16:00,5.6,3.1,30.41,NNE,14,0.0,0.0,89,0.00,,---,0.00,18.00,VWS V14.00,2013-11-27 14:16:00,
2013-11-27 08:21:00,5.8,3.3,30.41,NNE,15,0.0,0.0,89,0.00,,---,0.00,19.00,VWS V14.00,2013-11-27 14:21:00,
2013-11-27 08:26:00,6.0,3.7,30.42,NNE,15,0.0,0.0,90,0.00,,---,0.00,19.00,VWS V14.00,2013-11-27 14:26:00,
2013-11-27 08:30:00,6.1,3.8,30.42,NNE,14,0.0,0.0,90,0.00,,---,0.00,19.00,VWS V14.00,2013-11-27 14:30:00,
2013-11-27 08:31:00,6.3,4.0,30.42,NNE,14,0.0,0.0,90,0.00,,---,0.00,21.00,VWS V14.00,2013-11-27 14:31:00,
2013-11-27 08:36:00,6.6,4.3,30.42,NNE,14,0.0,0.0,90,0.00,,---,0.00,23.00,VWS V14.00,2013-11-27 14:36:00,
2013-11-27 08:41:00,7.1,4.8,30.41,NNE,15,0.0,0.0,90,0.00,,---,0.00,23.00,VWS V14.00,2013-11-27 14:41:00,
2013-11-27 08:46:00,7.3,5.0,30.41,NNE,15,0.0,0.0,90,0.00,,---,0.00,25.00,VWS V14.00,2013-11-27 14:46:00,
2013-11-27 08:51:00,7.9,5.8,30.42,NNE,14,0.0,0.0,91,0.00,,---,0.00,42.00,VWS V14.00,2013-11-27 14:51:00,
2013-11-27 08:57:00,8.4,6.3,30.41,NNE,15,0.0,0.0,91,0.00,,---,0.00,25.00,VWS V14.00,2013-11-27 14:57:00,
2013-11-27 09:00:00,8.5,6.4,30.41,NNE,15,0.0,0.0,91,0.00,,---,0.00,25.00,VWS V14.00,2013-11-27 15:00:00,
2013-11-27 09:02:00,8.8,6.7,30.41,NNE,14,0.0,0.0,91,0.00,,---,0.00,26.00,VWS V14.00,2013-11-27 15:02:00,
2013-11-27 09:07:00,9.1,7.0,30.41,NNE,15,0.0,0.0,91,0.00,,---,0.00,26.00,VWS V14.00,2013-11-27 15:07:00,
2013-11-27 09:12:00,9.5,7.4,30.41,NNE,14,0.0,0.0,91,0.00,,---,0.00,28.00,VWS V14.00,2013-11-27 15:12:00,
2013-11-27 09:17:00,9.9,7.6,30.41,NNE,15,0.0,0.0,90,0.00,,---,0.00,30.00,VWS V14.00,2013-11-27 15:17:00,
2013-11-27 09:22:00,10.0,7.7,30.41,NNE,14,0.0,0.0,90,0.00,,---,0.00,32.00,VWS V14.00,2013-11-27 15:22:00,
2013-11-27 09:27:00,10.4,8.1,30.41,NNE,15,0.0,0.0,90,0.00,,---,0.00,42.00,VWS V14.00,2013-11-27 15:27:00,
2013-11-27 09:30:00,10.4,8.1,30.41,NNE,15,0.0,0.0,90,0.00,,---,0.00,42.00,VWS V14.00,2013-11-27 15:30:00,
2013-11-27 09:32:00,10.8,8.2,30.42,NNE,21,0.0,1.0,89,0.00,,---,0.00,84.00,VWS V14.00,2013-11-27 15:32:00,
2013-11-27 09:37:00,11.2,8.4,30.42,SSE,158,0.0,1.0,88,0.00,,---,0.00,132.00,VWS V14.00,2013-11-27 15:37:00,
2013-11-27 09:42:00,11.8,8.9,30.41,SSE,158,0.0,1.0,88,0.00,,---,0.00,127.00,VWS V14.00,2013-11-27 15:42:00,
2013-11-27 09:47:00,12.3,9.2,30.41,SSE,158,0.0,1.0,87,0.00,,---,0.00,128.00,VWS V14.00,2013-11-27 15:47:00,
2013-11-27 09:52:00,12.7,9.3,30.41,SSE,157,0.0,1.0,86,0.00,,---,0.00,98.00,VWS V14.00,2013-11-27 15:52:00,
2013-11-27 09:57:00,13.0,9.4,30.40,SSE,157,0.0,0.0,85,0.00,,---,0.00,174.00,VWS V14.00,2013-11-27 15:57:00,
2013-11-27 10:00:00,13.0,9.4,30.40,SSE,157,0.0,2.0,85,0.00,,---,0.00,134.00,VWS V14.00,2013-11-27 16:00:00,
2013-11-27 10:02:00,13.3,9.4,30.40,ESE,105,0.0,2.0,84,0.00,,---,0.00,70.00,VWS V14.00,2013-11-27 16:02:00,
2013-11-27 10:07:00,13.5,9.0,30.41,ESE,105,0.0,2.0,82,0.00,,---,0.00,54.00,VWS V14.00,2013-11-27 16:07:00,
2013-11-27 10:12:00,13.5,9.0,30.40,ESE,123,0.0,2.0,82,0.00,,---,0.00,72.00,VWS V14.00,2013-11-27 16:12:00,
2013-11-27 10:17:00,13.6,8.9,30.40,ESE,123,0.0,2.0,81,0.00,,---,0.00,120.00,VWS V14.00,2013-11-27 16:17:00,
2013-11-27 10:22:00,13.9,9.2,30.40,South,179,0.0,2.0,81,0.00,,---,0.00,160.00,VWS V14.00,2013-11-27 16:22:00,
2013-11-27 10:27:00,14.1,9.1,30.39,South,176,1.0,2.0,80,0.00,,---,0.00,165.00,VWS V14.00,2013-11-27 16:27:00,
2013-11-27 10:30:00,14.1,9.1,30.40,South,183,1.0,3.0,80,0.00,,---,0.00,165.00,VWS V14.00,2013-11-27 16:30:00,
2013-11-27 10:32:00,14.4,9.4,30.39,NE,36,0.0,2.0,80,0.00,,---,0.00,216.00,VWS V14.00,2013-11-27 16:32:00,
2013-11-27 10:37:00,14.8,9.5,30.39,NE,38,1.0,2.0,79,0.00,,---,0.00,148.00,VWS V14.00,2013-11-27 16:37:00,
2013-11-27 10:43:00,15.3,10.0,30.38,SSW,192,0.0,2.0,79,0.00,,---,0.00,139.00,VWS V14.00,2013-11-27 16:43:00,
2013-11-27 10:48:00,15.7,9.8,30.38,South,186,2.0,4.0,77,0.00,,---,0.00,137.00,VWS V14.00,2013-11-27 16:48:00,
2013-11-27 10:53:00,16.0,9.5,30.38,SSE,155,2.0,4.0,75,0.00,,---,0.00,162.00,VWS V14.00,2013-11-27 16:53:00,
2013-11-27 10:58:00,16.4,9.9,30.37,SSE,168,0.0,1.0,75,0.00,,---,0.00,178.00,VWS V14.00,2013-11-27 16:58:00,
2013-11-27 11:00:00,16.3,9.8,30.37,SSE,168,0.0,4.0,75,0.00,,---,0.00,171.00,VWS V14.00,2013-11-27 17:00:00,
2013-11-27 11:03:00,16.9,9.8,30.37,SSE,163,0.0,3.0,73,0.00,,---,0.00,195.00,VWS V14.00,2013-11-27 17:03:00,
2013-11-27 11:08:00,17.2,10.4,30.36,South,171,0.0,3.0,74,0.00,,---,0.00,190.00,VWS V14.00,2013-11-27 17:08:00,
2013-11-27 11:13:00,17.5,9.7,30.36,South,178,0.0,3.0,71,0.00,,---,0.00,185.00,VWS V14.00,2013-11-27 17:13:00,
2013-11-27 11:18:00,17.7,9.9,30.36,South,174,1.0,3.0,71,0.00,,---,0.00,181.00,VWS V14.00,2013-11-27 17:18:00,
2013-11-27 11:23:00,18.0,10.2,30.36,SW,224,0.0,3.0,71,0.00,,---,0.00,174.00,VWS V14.00,2013-11-27 17:23:00,
2013-11-27 11:28:00,18.2,10.1,30.36,SSE,165,0.0,1.0,70,0.00,,---,0.00,220.00,VWS V14.00,2013-11-27 17:28:00,
2013-11-27 11:30:00,18.1,10.3,30.35,SSE,165,1.0,3.0,71,0.00,,---,0.00,185.00,VWS V14.00,2013-11-27 17:30:00,
2013-11-27 11:33:00,18.5,10.4,30.34,South,169,0.0,2.0,70,0.00,,---,0.00,151.00,VWS V14.00,2013-11-27 17:33:00,
2013-11-27 11:38:00,18.7,10.2,30.35,SSW,197,0.0,3.0,69,0.00,,---,0.00,139.00,VWS V14.00,2013-11-27 17:38:00,
2013-11-27 11:43:00,18.7,9.9,30.34,South,169,0.0,3.0,68,0.00,,---,0.00,200.00,VWS V14.00,2013-11-27 17:43:00,
2013-11-27 11:48:00,18.8,10.3,30.34,SSE,149,0.0,3.0,69,0.00,,---,0.00,218.00,VWS V14.00,2013-11-27 17:48:00,
2013-11-27 11:53:00,19.0,10.2,30.33,SSE,155,0.0,3.0,68,0.00,,---,0.00,220.00,VWS V14.00,2013-11-27 17:53:00,
2013-11-27 11:58:00,19.2,10.4,30.33,SSW,195,4.0,4.0,68,0.00,,---,0.00,223.00,VWS V14.00,2013-11-27 17:58:00,
2013-11-27 12:00:00,19.1,10.3,30.33,SSW,198,0.0,3.0,68,0.00,,---,0.00,214.00,VWS V14.00,2013-11-27 18:00:00,
2013-11-27 12:03:00,19.4,10.6,30.33,SE,144,1.0,4.0,68,0.00,,---,0.00,304.00,VWS V14.00,2013-11-27 18:03:00,
2013-11-27 12:08:00,19.5,10.0,30.32,SSE,164,0.0,4.0,66,0.00,,---,0.00,294.00,VWS V14.00,2013-11-27 18:08:00,
2013-11-27 12:13:00,19.7,10.5,30.32,SW,233,0.0,4.0,67,0.00,,---,0.00,394.00,VWS V14.00,2013-11-27 18:13:00,
2013-11-27 12:19:00,20.0,10.8,30.32,SSE,159,0.0,4.0,67,0.00,,---,0.00,378.00,VWS V14.00,2013-11-27 18:19:00,
2013-11-27 12:24:00,20.3,10.8,30.31,South,183,2.0,4.0,66,0.00,,---,0.00,274.00,VWS V14.00,2013-11-27 18:24:00,
2013-11-27 12:29:00,20.6,11.1,30.31,South,187,0.0,1.0,66,0.00,,---,0.00,320.00,VWS V14.00,2013-11-27 18:29:00,
2013-11-27 12:30:00,20.4,10.9,30.31,South,186,0.0,4.0,66,0.00,,---,0.00,313.00,VWS V14.00,2013-11-27 18:30:00,
2013-11-27 12:34:00,20.8,10.9,30.31,SSE,165,0.0,3.0,65,0.00,,---,0.00,213.00,VWS V14.00,2013-11-27 18:34:00,
2013-11-27 12:39:00,20.9,11.0,30.30,SSE,165,0.0,3.0,65,0.00,,---,0.00,237.00,VWS V14.00,2013-11-27 18:39:00,
2013-11-27 12:44:00,21.1,11.2,30.30,SSE,165,0.0,3.0,65,0.00,,---,0.00,211.00,VWS V14.00,2013-11-27 18:44:00,
2013-11-27 12:49:00,21.3,11.4,30.30,SSE,167,0.0,3.0,65,0.00,,---,0.00,158.00,VWS V14.00,2013-11-27 18:49:00,
2013-11-27 12:54:00,21.3,11.0,30.29,SW,234,0.0,3.0,64,0.00,,---,0.00,160.00,VWS V14.00,2013-11-27 18:54:00,
2013-11-27 12:56:00,21.3,11.0,30.29,SW,234,0.0,3.0,64,0.00,,---,0.00,176.00,VWS V14.00,2013-11-27 18:56:00,
2013-11-27 13:00:00,22.1,10.4,30.25,SSW,201,0.0,5.0,60,0.00,,---,0.00,74.00,VWS V14.00,2013-11-27 19:00:00,
2013-11-27 13:01:00,21.4,10.8,30.29,South,173,2.0,5.0,63,0.00,,---,0.00,190.00,VWS V14.00,2013-11-27 19:01:00,
2013-11-27 13:06:00,21.6,11.0,30.29,South,182,0.0,5.0,63,0.00,,---,0.00,144.00,VWS V14.00,2013-11-27 19:06:00,
2013-11-27 13:11:00,21.7,10.7,30.28,SE,146,0.0,5.0,62,0.00,,---,0.00,141.00,VWS V14.00,2013-11-27 19:11:00,
2013-11-27 13:16:00,21.7,11.1,30.28,SSW,207,0.0,5.0,63,0.00,,---,0.00,149.00,VWS V14.00,2013-11-27 19:16:00,
2013-11-27 13:21:00,21.9,10.9,30.28,SSE,162,1.0,5.0,62,0.00,,---,0.00,167.00,VWS V14.00,2013-11-27 19:21:00,
2013-11-27 13:27:00,22.0,10.2,30.27,SSE,150,0.0,5.0,60,0.00,,---,0.00,105.00,VWS V14.00,2013-11-27 19:27:00,
2013-11-27 13:30:00,22.0,10.2,30.27,SSE,150,0.0,5.0,60,0.00,,---,0.00,105.00,VWS V14.00,2013-11-27 19:30:00,
2013-11-27 13:32:00,21.9,10.5,30.27,SSE,151,0.0,3.0,61,0.00,,---,0.00,98.00,VWS V14.00,2013-11-27 19:32:00,
2013-11-27 13:37:00,21.9,10.5,30.27,SSW,200,0.0,3.0,61,0.00,,---,0.00,125.00,VWS V14.00,2013-11-27 19:37:00,
2013-11-27 13:42:00,21.9,10.5,30.26,SE,125,0.0,3.0,61,0.00,,---,0.00,125.00,VWS V14.00,2013-11-27 19:42:00,
2013-11-27 13:47:00,22.0,11.0,30.26,SE,140,0.0,3.0,62,0.00,,---,0.00,127.00,VWS V14.00,2013-11-27 19:47:00,
2013-11-27 13:52:00,22.1,10.7,30.25,SSE,155,2.0,5.0,61,0.00,,---,0.00,91.00,VWS V14.00,2013-11-27 19:52:00,
2013-11-27 13:57:00,22.1,10.4,30.25,SSW,201,0.0,0.0,60,0.00,,---,0.00,72.00,VWS V14.00,2013-11-27 19:57:00,
2013-11-27 14:00:00,22.1,10.4,30.25,SSW,201,0.0,5.0,60,0.00,,---,0.00,74.00,VWS V14.00,2013-11-27 20:00:00,
2013-11-27 14:02:00,22.1,10.0,30.25,South,175,0.0,3.0,59,0.00,,---,0.00,84.00,VWS V14.00,2013-11-27 20:02:00,
2013-11-27 14:07:00,22.1,10.4,30.25,SSE,161,0.0,3.0,60,0.00,,---,0.00,76.00,VWS V14.00,2013-11-27 20:07:00,
2013-11-27 14:12:00,22.2,10.1,30.24,South,182,0.0,3.0,59,0.00,,---,0.00,79.00,VWS V14.00,2013-11-27 20:12:00,
2013-11-27 14:17:00,22.2,9.7,30.24,SSW,209,0.0,6.0,58,0.00,,---,0.00,86.00,VWS V14.00,2013-11-27 20:17:00,
2013-11-27 14:22:00,22.2,9.3,30.24,SSW,197,2.0,10.0,57,0.00,,---,0.00,79.00,VWS V14.00,2013-11-27 20:22:00,
2013-11-27 14:27:00,22.2,9.3,30.24,SSE,148,0.0,0.0,57,0.00,,---,0.00,74.00,VWS V14.00,2013-11-27 20:27:00,
2013-11-27 14:30:00,22.2,9.3,30.24,SSE,148,0.0,10.0,57,0.00,,---,0.00,74.00,VWS V14.00,2013-11-27 20:30:00,
2013-11-27 14:32:00,22.2,9.7,30.24,SSE,168,0.0,1.0,58,0.00,,---,0.00,67.00,VWS V14.00,2013-11-27 20:32:00,
2013-11-27 14:37:00,22.2,10.1,30.24,ESE,117,0.0,2.0,59,0.00,,---,0.00,93.00,VWS V14.00,2013-11-27 20:37:00,
2013-11-27 14:42:00,22.4,10.3,30.24,SSE,168,0.0,5.0,59,0.00,,---,0.00,121.00,VWS V14.00,2013-11-27 20:42:00,
2013-11-27 14:47:00,22.5,10.4,30.24,SSE,168,0.0,5.0,59,0.00,,---,0.00,114.00,VWS V14.00,2013-11-27 20:47:00,
2013-11-27 14:52:00,22.6,10.4,30.23,South,170,0.0,5.0,59,0.00,,---,0.00,113.00,VWS V14.00,2013-11-27 20:52:00,
2013-11-27 14:57:00,22.8,10.2,30.23,South,180,0.0,0.0,58,0.00,,---,0.00,128.00,VWS V14.00,2013-11-27 20:57:00,
2013-11-27 15:00:00,22.8,10.2,30.23,South,180,0.0,5.0,58,0.00,,---,0.00,128.00,VWS V14.00,2013-11-27 21:00:00,
2013-11-27 15:02:00,23.0,10.4,30.22,SSE,153,1.0,3.0,58,0.00,,---,0.00,109.00,VWS V14.00,2013-11-27 21:02:00,
2013-11-27 15:07:00,23.1,10.5,30.21,ENE,75,0.0,6.0,58,0.00,,---,0.00,70.00,VWS V14.00,2013-11-27 21:07:00,
2013-11-27 15:13:00,23.0,10.4,30.20,SSE,150,0.0,6.0,58,0.00,,---,0.00,51.00,VWS V14.00,2013-11-27 21:13:00,
2013-11-27 15:18:00,22.9,10.0,30.19,South,186,0.0,6.0,57,0.00,,---,0.00,53.00,VWS V14.00,2013-11-27 21:18:00,
2013-11-27 15:23:00,22.7,10.2,30.18,South,186,0.0,6.0,58,0.00,,---,0.00,54.00,VWS V14.00,2013-11-27 21:23:00,
2013-11-27 15:28:00,22.7,10.2,30.18,South,182,1.0,2.0,58,0.00,,---,0.00,46.00,VWS V14.00,2013-11-27 21:28:00,
2013-11-27 15:30:00,22.7,10.2,30.18,SSW,196,0.0,6.0,58,0.00,,---,0.00,47.00,VWS V14.00,2013-11-27 21:30:00,
2013-11-27 15:33:00,22.5,10.0,30.18,SSW,208,1.0,4.0,58,0.00,,---,0.00,40.00,VWS V14.00,2013-11-27 21:33:00,
2013-11-27 15:38:00,22.5,10.0,30.19,SSW,198,2.0,10.0,58,0.00,,---,0.00,33.00,VWS V14.00,2013-11-27 21:38:00,
2013-11-27 15:43:00,22.4,9.9,30.19,SSW,192,0.0,10.0,58,0.00,,---,0.00,28.00,VWS V14.00,2013-11-27 21:43:00,
2013-11-27 15:48:00,22.4,9.9,30.18,SSE,150,0.0,10.0,58,0.00,,---,0.00,25.00,VWS V14.00,2013-11-27 21:48:00,
2013-11-27 15:53:00,22.3,9.8,30.17,SW,227,0.0,10.0,58,0.00,,---,0.00,25.00,VWS V14.00,2013-11-27 21:53:00,
2013-11-27 15:58:00,22.2,9.7,30.17,South,178,0.0,0.0,58,0.00,,---,0.00,26.00,VWS V14.00,2013-11-27 21:58:00,
2013-11-27 16:00:00,22.2,9.7,30.17,South,178,0.0,10.0,58,0.00,,---,0.00,26.00,VWS V14.00,2013-11-27 22:00:00,
2013-11-27 16:03:00,22.2,10.1,30.17,West,269,0.0,1.0,59,0.00,,---,0.00,23.00,VWS V14.00,2013-11-27 22:03:00,
2013-11-27 16:08:00,22.1,10.0,30.17,SW,226,0.0,1.0,59,0.00,,---,0.00,18.00,VWS V14.00,2013-11-27 22:08:00,
2013-11-27 16:13:00,22.0,9.9,30.17,South,179,0.0,2.0,59,0.00,,---,0.00,19.00,VWS V14.00,2013-11-27 22:13:00,
2013-11-27 16:18:00,22.0,10.2,30.17,South,182,1.0,3.0,60,0.00,,---,0.00,16.00,VWS V14.00,2013-11-27 22:18:00,
2013-11-27 16:23:00,21.9,10.2,30.18,South,181,0.0,3.0,60,0.00,,---,0.00,12.00,VWS V14.00,2013-11-27 22:23:00,
2013-11-27 16:28:00,21.9,10.2,30.18,South,181,1.0,1.0,60,0.00,,---,0.00,9.00,VWS V14.00,2013-11-27 22:28:00,
2013-11-27 16:30:00,21.9,10.2,30.18,South,181,0.0,3.0,60,0.00,,---,0.00,11.00,VWS V14.00,2013-11-27 22:30:00,
2013-11-27 16:33:00,21.8,10.1,30.18,South,181,0.0,1.0,60,0.00,,---,0.00,0.00,VWS V14.00,2013-11-27 22:33:00,
2013-11-27 16:38:00,21.7,10.3,30.17,South,182,0.0,1.0,61,0.00,,---,0.00,0.00,VWS V14.00,2013-11-27 22:38:00,
2013-11-27 16:43:00,21.6,10.6,30.16,South,182,0.0,1.0,62,0.00,,---,0.00,0.00,VWS V14.00,2013-11-27 22:43:00,
2013-11-27 16:48:00,21.5,10.1,30.16,South,182,0.0,1.0,61,0.00,,---,0.00,0.00,VWS V14.00,2013-11-27 22:48:00,
2013-11-27 16:54:00,21.3,10.3,30.15,South,182,0.0,1.0,62,0.00,,---,0.00,0.00,VWS V14.00,2013-11-27 22:54:00,
2013-11-27 16:59:00,21.2,10.2,30.16,West,275,0.0,1.0,62,0.00,,---,0.00,0.00,VWS V14.00,2013-11-27 22:59:00,
2013-11-27 17:00:00,21.2,10.2,30.16,West,275,0.0,1.0,62,0.00,,---,0.00,0.00,VWS V14.00,2013-11-27 23:00:00,
2013-11-27 17:04:00,21.1,10.1,30.15,West,269,0.0,1.0,62,0.00,,---,0.00,0.00,VWS V14.00,2013-11-27 23:04:00,
2013-11-27 17:09:00,21.0,10.4,30.15,West,271,0.0,1.0,63,0.00,,---,0.00,0.00,VWS V14.00,2013-11-27 23:09:00,
2013-11-27 17:14:00,20.9,10.3,30.15,West,271,0.0,1.0,63,0.00,,---,0.00,0.00,VWS V14.00,2013-11-27 23:14:00,
2013-11-27 17:19:00,20.9,10.3,30.14,WSW,245,0.0,1.0,63,0.00,,---,0.00,0.00,VWS V14.00,2013-11-27 23:19:00,
2013-11-27 17:24:00,20.9,10.6,30.15,WSW,246,0.0,1.0,64,0.00,,---,0.00,0.00,VWS V14.00,2013-11-27 23:24:00,
2013-11-27 17:29:00,21.1,10.1,30.15,South,174,0.0,1.0,62,0.00,,---,0.00,0.00,VWS V14.00,2013-11-27 23:29:00,
2013-11-27 17:30:00,21.0,10.0,30.15,SSW,196,0.0,3.0,62,0.00,,---,0.00,0.00,VWS V14.00,2013-11-27 23:30:00,
2013-11-27 17:34:00,21.2,10.2,30.15,South,171,1.0,2.0,62,0.00,,---,0.00,0.00,VWS V14.00,2013-11-27 23:34:00,
2013-11-27 17:39:00,21.3,11.0,30.14,South,171,0.0,2.0,64,0.00,,---,0.00,0.00,VWS V14.00,2013-11-27 23:39:00,
2013-11-27 17:44:00,21.4,11.1,30.14,South,171,0.0,2.0,64,0.00,,---,0.00,0.00,VWS V14.00,2013-11-27 23:44:00,
2013-11-27 17:49:00,21.5,10.9,30.14,South,171,0.0,2.0,63,0.00,,---,0.00,0.00,VWS V14.00,2013-11-27 23:49:00,
2013-11-27 17:54:00,21.6,11.0,30.13,South,171,0.0,2.0,63,0.00,,---,0.00,0.00,VWS V14.00,2013-11-27 23:54:00,
2013-11-27 17:59:00,21.7,10.7,30.13,SSE,148,0.0,2.0,62,0.00,,---,0.00,0.00,VWS V14.00,2013-11-27 23:59:00,
2013-11-27 18:00:00,21.7,11.1,30.14,South,171,0.0,2.0,63,0.00,,---,0.00,0.00,VWS V14.00,2013-11-28 00:00:00,
2013-11-27 18:04:00,21.9,10.5,30.14,South,188,0.0,2.0,61,0.00,,---,0.00,0.00,VWS V14.00,2013-11-28 00:04:00,
2013-11-27 18:09:00,22.0,10.6,30.14,South,189,0.0,2.0,61,0.00,,---,0.00,0.00,VWS V14.00,2013-11-28 00:09:00,
2013-11-27 18:14:00,22.1,10.7,30.14,South,189,0.0,2.0,61,0.00,,---,0.00,0.00,VWS V14.00,2013-11-28 00:14:00,
2013-11-27 18:20:00,22.2,10.4,30.15,SSW,208,0.0,2.0,60,0.00,,---,0.00,0.00,VWS V14.00,2013-11-28 00:20:00,
2013-11-27 18:25:00,22.2,10.4,30.15,SSW,201,0.0,2.0,60,0.00,,---,0.00,0.00,VWS V14.00,2013-11-28 00:25:00,
2013-11-27 18:30:00,22.2,10.4,30.16,SE,146,0.0,4.0,60,0.00,,---,0.00,0.00,VWS V14.00,2013-11-28 00:30:00,
2013-11-27 18:35:00,22.2,10.4,30.16,South,173,0.0,4.0,60,0.00,,---,0.00,0.00,VWS V14.00,2013-11-28 00:35:00,
2013-11-27 18:40:00,22.2,10.8,30.16,South,173,1.0,4.0,61,0.00,,---,0.00,0.00,VWS V14.00,2013-11-28 00:40:00,
2013-11-27 18:45:00,22.1,10.0,30.17,South,189,0.0,4.0,59,0.00,,---,0.00,0.00,VWS V14.00,2013-11-28 00:45:00,
2013-11-27 18:50:00,22.0,10.2,30.17,South,179,0.0,4.0,60,0.00,,---,0.00,0.00,VWS V14.00,2013-11-28 00:50:00,
2013-11-27 18:55:00,21.9,10.9,30.17,South,178,0.0,4.0,62,0.00,,---,0.00,0.00,VWS V14.00,2013-11-28 00:55:00,
2013-11-27 19:00:00,21.8,10.8,30.17,South,179,0.0,1.0,62,0.00,,---,0.00,0.00,VWS V14.00,2013-11-28 01:00:00,
2013-11-27 19:05:00,21.9,10.5,30.17,SSW,210,0.0,1.0,61,0.00,,---,0.00,0.00,VWS V14.00,2013-11-28 01:05:00,
2013-11-27 19:10:00,22.0,10.6,30.16,SSW,211,0.0,1.0,61,0.00,,---,0.00,0.00,VWS V14.00,2013-11-28 01:10:00,
2013-11-27 19:15:00,22.0,10.6,30.16,SSW,210,0.0,1.0,61,0.00,,---,0.00,0.00,VWS V14.00,2013-11-28 01:15:00,
2013-11-27 19:20:00,22.0,10.6,30.17,SSW,212,0.0,1.0,61,0.00,,---,0.00,0.00,VWS V14.00,2013-11-28 01:20:00,
2013-11-27 19:25:00,22.0,10.6,30.17,South,183,0.0,1.0,61,0.00,,---,0.00,0.00,VWS V14.00,2013-11-28 01:25:00,
2013-11-27 19:30:00,22.0,10.2,30.17,SSE,148,0.0,4.0,60,0.00,,---,0.00,0.00,VWS V14.00,2013-11-28 01:30:00,
2013-11-27 19:35:00,22.0,10.6,30.17,SSE,148,0.0,4.0,61,0.00,,---,0.00,0.00,VWS V14.00,2013-11-28 01:35:00,
2013-11-27 19:40:00,22.0,10.6,30.17,SSE,148,0.0,4.0,61,0.00,,---,0.00,0.00,VWS V14.00,2013-11-28 01:40:00,
2013-11-27 19:45:00,22.0,10.6,30.17,WSW,247,0.0,4.0,61,0.00,,---,0.00,0.00,VWS V14.00,2013-11-28 01:45:00,
2013-11-27 19:50:00,21.9,10.2,30.17,WSW,247,0.0,4.0,60,0.00,,---,0.00,0.00,VWS V14.00,2013-11-28 01:50:00,
2013-11-27 19:56:00,21.9,10.5,30.17,WSW,247,0.0,4.0,61,0.00,,---,0.00,0.00,VWS V14.00,2013-11-28 01:56:00,
2013-11-27 20:01:00,21.9,10.5,30.17,SSW,196,0.0,1.0,61,0.00,,---,0.00,0.00,VWS V14.00,2013-11-28 02:01:00,
2013-11-27 20:06:00,21.9,10.5,30.17,South,178,1.0,2.0,61,0.00,,---,0.00,0.00,VWS V14.00,2013-11-28 02:06:00,
2013-11-27 20:11:00,21.9,10.5,30.17,South,177,0.0,2.0,61,0.00,,---,0.00,0.00,VWS V14.00,2013-11-28 02:11:00,
2013-11-27 20:16:00,21.9,10.9,30.17,South,177,0.0,2.0,62,0.00,,---,0.00,0.00,VWS V14.00,2013-11-28 02:16:00,
2013-11-27 20:21:00,21.9,10.9,30.16,South,177,0.0,2.0,62,0.00,,---,0.00,0.00,VWS V14.00,2013-11-28 02:21:00,
2013-11-27 20:26:00,21.9,10.9,30.16,South,178,1.0,2.0,62,0.00,,---,0.00,0.00,VWS V14.00,2013-11-28 02:26:00,
2013-11-27 20:30:00,21.9,10.9,30.16,South,178,0.0,2.0,62,0.00,,---,0.00,0.00,VWS V14.00,2013-11-28 02:30:00,
2013-11-27 20:31:00,21.9,10.9,30.16,South,171,0.0,1.0,62,0.00,,---,0.00,0.00,VWS V14.00,2013-11-28 02:31:00,
2013-11-27 20:36:00,21.9,10.9,30.16,South,169,0.0,1.0,62,0.00,,---,0.00,0.00,VWS V14.00,2013-11-28 02:36:00,
2013-11-27 20:41:00,21.9,10.9,30.16,SSE,168,0.0,1.0,62,0.00,,---,0.00,0.00,VWS V14.00,2013-11-28 02:41:00,
2013-11-27 20:46:00,21.9,11.2,30.16,NNW,346,0.0,2.0,63,0.00,,---,0.00,0.00,VWS V14.00,2013-11-28 02:46:00,
2013-11-27 20:51:00,22.0,11.0,30.16,SE,129,0.0,4.0,62,0.00,,---,0.00,0.00,VWS V14.00,2013-11-28 02:51:00,
2013-11-27 20:56:00,21.9,11.2,30.16,SE,128,0.0,4.0,63,0.00,,---,0.00,0.00,VWS V14.00,2013-11-28 02:56:00,
2013-11-27 21:00:00,21.9,11.2,30.16,SE,128,1.0,4.0,63,0.00,,---,0.00,0.00,VWS V14.00,2013-11-28 03:00:00,
2013-11-27 21:01:00,21.9,11.2,30.16,South,171,0.0,1.0,63,0.00,,---,0.00,0.00,VWS V14.00,2013-11-28 03:01:00,
2013-11-27 21:06:00,21.9,11.2,30.16,South,175,0.0,2.0,63,0.00,,---,0.00,0.00,VWS V14.00,2013-11-28 03:06:00,
2013-11-27 21:11:00,21.9,11.2,30.16,South,175,0.0,2.0,63,0.00,,---,0.00,0.00,VWS V14.00,2013-11-28 03:11:00,
2013-11-27 21:16:00,21.9,11.2,30.16,South,175,0.0,2.0,63,0.00,,---,0.00,0.00,VWS V14.00,2013-11-28 03:16:00,
2013-11-27 21:21:00,21.8,11.2,30.16,South,175,0.0,2.0,63,0.00,,---,0.00,0.00,VWS V14.00,2013-11-28 03:21:00,
2013-11-27 21:27:00,21.8,11.2,30.15,SSE,165,0.0,2.0,63,0.00,,---,0.00,0.00,VWS V14.00,2013-11-28 03:27:00,
2013-11-27 21:30:00,21.8,11.2,30.15,SSE,165,0.0,2.0,63,0.00,,---,0.00,0.00,VWS V14.00,2013-11-28 03:30:00,
2013-11-27 21:32:00,21.8,11.2,30.15,SSE,165,0.0,1.0,63,0.00,,---,0.00,0.00,VWS V14.00,2013-11-28 03:32:00,
2013-11-27 21:37:00,21.8,11.2,30.15,SSW,210,0.0,4.0,63,0.00,,---,0.00,0.00,VWS V14.00,2013-11-28 03:37:00,
2013-11-27 21:42:00,21.8,11.5,30.14,SE,143,0.0,4.0,64,0.00,,---,0.00,0.00,VWS V14.00,2013-11-28 03:42:00,
2013-11-27 21:47:00,21.7,11.4,30.14,SSE,168,1.0,4.0,64,0.00,,---,0.00,0.00,VWS V14.00,2013-11-28 03:47:00,
2013-11-27 21:52:00,21.7,11.1,30.14,SSE,148,0.0,4.0,63,0.00,,---,0.00,0.00,VWS V14.00,2013-11-28 03:52:00,
2013-11-27 21:57:00,21.6,11.3,30.14,SSE,157,0.0,1.0,64,0.00,,---,0.00,0.00,VWS V14.00,2013-11-28 03:57:00,
2013-11-27 22:00:00,21.6,11.3,30.14,SSE,157,0.0,4.0,64,0.00,,---,0.00,0.00,VWS V14.00,2013-11-28 04:00:00,
2013-11-27 22:02:00,21.6,11.3,30.14,SSE,156,0.0,2.0,64,0.00,,---,0.00,0.00,VWS V14.00,2013-11-28 04:02:00,
2013-11-27 22:07:00,21.6,11.3,30.14,SSE,155,0.0,2.0,64,0.00,,---,0.00,0.00,VWS V14.00,2013-11-28 04:07:00,
2013-11-27 22:12:00,21.6,11.7,30.14,SSE,155,0.0,2.0,65,0.00,,---,0.00,0.00,VWS V14.00,2013-11-28 04:12:00,
2013-11-27 22:17:00,21.5,11.6,30.14,ESE,115,0.0,3.0,65,0.00,,---,0.00,0.00,VWS V14.00,2013-11-28 04:17:00,
2013-11-27 22:22:00,21.5,11.6,30.14,ESE,118,0.0,3.0,65,0.00,,---,0.00,0.00,VWS V14.00,2013-11-28 04:22:00,
2013-11-27 22:27:00,21.5,11.6,30.13,ESE,118,0.0,0.0,65,0.00,,---,0.00,0.00,VWS V14.00,2013-11-28 04:27:00,
2013-11-27 22:30:00,21.5,11.6,30.14,ESE,118,0.0,3.0,65,0.00,,---,0.00,0.00,VWS V14.00,2013-11-28 04:30:00,
2013-11-27 22:32:00,21.5,11.9,30.13,ESE,121,1.0,1.0,66,0.00,,---,0.00,0.00,VWS V14.00,2013-11-28 04:32:00,
2013-11-27 22:37:00,21.5,11.9,30.13,ESE,121,0.0,1.0,66,0.00,,---,0.00,0.00,VWS V14.00,2013-11-28 04:37:00,
2013-11-27 22:42:00,21.5,11.9,30.13,SSE,165,0.0,2.0,66,0.00,,---,0.00,0.00,VWS V14.00,2013-11-28 04:42:00,
2013-11-27 22:47:00,21.4,11.8,30.13,SSE,165,0.0,2.0,66,0.00,,---,0.00,0.00,VWS V14.00,2013-11-28 04:47:00,
2013-11-27 22:53:00,21.4,11.8,30.13,SSE,165,0.0,2.0,66,0.00,,---,0.00,0.00,VWS V14.00,2013-11-28 04:53:00,
2013-11-27 22:58:00,21.4,11.8,30.13,ENE,61,0.0,0.0,66,0.00,,---,0.00,0.00,VWS V14.00,2013-11-28 04:58:00,
2013-11-27 23:00:00,21.4,11.8,30.13,ENE,60,0.0,2.0,66,0.00,,---,0.00,0.00,VWS V14.00,2013-11-28 05:00:00,
2013-11-27 23:01:00,21.4,11.8,30.13,ENE,59,0.0,1.0,66,0.00,,---,0.00,0.00,VWS V14.00,2013-11-28 05:01:00,
2013-11-27 23:02:00,21.4,11.8,30.13,ENE,59,0.0,1.0,66,0.00,,---,0.00,0.00,VWS V14.00,2013-11-28 05:02:00,
2013-11-27 23:06:00,21.3,12.1,30.13,South,187,0.0,2.0,67,0.00,,---,0.00,0.00,VWS V14.00,2013-11-28 05:06:00,
2013-11-27 23:11:00,21.3,11.7,30.13,SSE,166,0.0,3.0,66,0.00,,---,0.00,0.00,VWS V14.00,2013-11-28 05:11:00,
2013-11-27 23:16:00,21.3,11.7,30.13,South,171,0.0,3.0,66,0.00,,---,0.00,0.00,VWS V14.00,2013-11-28 05:16:00,
2013-11-27 23:21:00,21.3,12.1,30.13,South,171,0.0,3.0,67,0.00,,---,0.00,0.00,VWS V14.00,2013-11-28 05:21:00,
2013-11-27 23:26:00,21.3,12.1,30.13,South,171,0.0,3.0,67,0.00,,---,0.00,0.00,VWS V14.00,2013-11-28 05:26:00,
2013-11-27 23:30:00,21.3,12.1,30.13,South,171,0.0,3.0,67,0.00,,---,0.00,0.00,VWS V14.00,2013-11-28 05:30:00,
2013-11-27 23:31:00,21.3,12.1,30.13,South,171,0.0,1.0,67,0.00,,---,0.00,0.00,VWS V14.00,2013-11-28 05:31:00,
2013-11-27 23:36:00,21.3,12.1,30.12,South,170,0.0,1.0,67,0.00,,---,0.00,0.00,VWS V14.00,2013-11-28 05:36:00,
2013-11-27 23:41:00,21.3,12.1,30.12,South,173,0.0,2.0,67,0.00,,---,0.00,0.00,VWS V14.00,2013-11-28 05:41:00,
2013-11-27 23:46:00,21.3,12.1,30.13,SSE,168,0.0,2.0,67,0.00,,---,0.00,0.00,VWS V14.00,2013-11-28 05:46:00,
2013-11-27 23:51:00,21.3,12.1,30.12,SSE,168,0.0,2.0,67,0.00,,---,0.00,0.00,VWS V14.00,2013-11-28 05:51:00,
2013-11-27 23:56:00,21.3,12.1,30.12,SSE,168,0.0,2.0,67,0.00,,---,0.00,0.00,VWS V14.00,2013-11-28 05:56:00,